createdAt,value
2019-04-04T00:00:04.660Z,997.73
2019-04-04T00:01:02.445Z,997.73
2019-04-04T00:02:01.666Z,997.73
2019-04-04T00:03:01.885Z,997.73
2019-04-04T00:04:02.041Z,997.52
2019-04-04T00:05:02.338Z,997.52
2019-04-04T00:06:02.681Z,997.52
2019-04-04T00:07:01.810Z,997.28
2019-04-04T00:08:01.992Z,997.28
2019-04-04T00:09:03.018Z,997.28
2019-04-04T00:10:04.841Z,997.28
2019-04-04T00:11:01.765Z,997.22
2019-04-04T00:12:01.991Z,997.22
2019-04-04T00:13:02.218Z,997.22
2019-04-04T00:14:02.384Z,997.22
2019-04-04T00:15:01.631Z,997.33
2019-04-04T00:16:01.863Z,997.33
2019-04-04T00:17:02.118Z,997.33
2019-04-04T00:18:02.300Z,997.33
2019-04-04T00:19:02.531Z,997.32
2019-04-04T00:20:01.846Z,997.32
2019-04-04T00:21:03.510Z,997.32
2019-04-04T00:22:05.567Z,997.32
2019-04-04T00:23:02.428Z,997.32
2019-04-04T00:24:02.646Z,997.32
2019-04-04T00:25:01.841Z,997.32
2019-04-04T00:26:02.125Z,997.32
2019-04-04T00:27:02.349Z,997.27
2019-04-04T00:28:02.513Z,997.27
2019-04-04T00:29:01.873Z,997.27
2019-04-04T00:30:02.038Z,997.27
2019-04-04T00:31:02.231Z,997.34
2019-04-04T00:32:02.435Z,997.34
2019-04-04T00:33:02.550Z,997.34
2019-04-04T00:34:01.745Z,997.34
2019-04-04T00:35:02.084Z,997.33
2019-04-04T00:36:03.564Z,997.33
2019-04-04T00:37:05.281Z,997.33
2019-04-04T00:38:01.687Z,997.33
2019-04-04T00:39:01.921Z,997.14
2019-04-04T00:40:02.189Z,997.14
2019-04-04T00:41:02.373Z,997.14
2019-04-04T00:42:01.664Z,997.14
2019-04-04T00:43:01.928Z,997.16
2019-04-04T00:44:02.135Z,997.16
2019-04-04T00:45:02.368Z,997.16
2019-04-04T00:46:02.638Z,997.16
2019-04-04T00:47:02.518Z,997.21
2019-04-04T00:48:03.939Z,997.21
2019-04-04T00:49:05.461Z,997.21
2019-04-04T00:50:06.931Z,997.21
2019-04-04T00:51:01.742Z,997.1
2019-04-04T00:52:02.057Z,997.1
2019-04-04T00:53:02.210Z,997.1
2019-04-04T00:54:02.476Z,997.1
2019-04-04T00:55:01.644Z,997.17
2019-04-04T00:56:01.893Z,997.17
2019-04-04T00:57:02.184Z,997.17
2019-04-04T00:58:02.377Z,997.17
2019-04-04T00:59:02.627Z,997.19
2019-04-04T01:00:04.133Z,997.19
2019-04-04T01:01:01.967Z,997.19
2019-04-04T01:02:02.227Z,997.19
2019-04-04T01:03:02.362Z,997.19
2019-04-04T01:04:02.605Z,997.19
2019-04-04T01:05:02.567Z,997.19
2019-04-04T01:06:03.947Z,997.19
2019-04-04T01:07:05.679Z,997.2
2019-04-04T01:08:02.414Z,997.2
2019-04-04T01:09:01.711Z,997.2
2019-04-04T01:10:01.901Z,997.2
2019-04-04T01:11:02.056Z,997.1
2019-04-04T01:12:02.300Z,997.1
2019-04-04T01:13:02.491Z,997.1
2019-04-04T01:14:01.816Z,997.1
2019-04-04T01:15:02.082Z,997.07
2019-04-04T01:16:03.598Z,997.07
2019-04-04T01:17:05.009Z,997.07
2019-04-04T01:18:01.718Z,997.07
2019-04-04T01:19:02.466Z,997.07
2019-04-04T01:20:02.657Z,997.07
2019-04-04T01:21:01.913Z,997.07
2019-04-04T01:22:02.595Z,997.07
2019-04-04T01:23:01.777Z,997.26
2019-04-04T01:24:02.042Z,997.26
2019-04-04T01:25:02.234Z,997.26
2019-04-04T01:26:04.318Z,997.26
2019-04-04T01:27:06.927Z,997.39
2019-04-04T01:28:01.777Z,997.39
2019-04-04T01:29:02.066Z,997.39
2019-04-04T01:30:02.271Z,997.39
2019-04-04T01:31:02.430Z,997.31
2019-04-04T01:32:01.740Z,997.31
2019-04-04T01:33:04.158Z,997.31
2019-04-04T01:34:02.149Z,997.31
2019-04-04T01:35:02.358Z,997.21
2019-04-04T01:36:02.601Z,997.21
2019-04-04T01:37:01.816Z,997.21
2019-04-04T01:38:02.043Z,997.21
2019-04-04T01:39:02.358Z,997.11
2019-04-04T01:40:03.136Z,997.11
2019-04-04T01:41:05.154Z,997.11
2019-04-04T01:42:02.057Z,997.11
2019-04-04T01:43:02.283Z,996.88
2019-04-04T01:44:05.765Z,996.88
2019-04-04T01:45:01.702Z,996.88
2019-04-04T01:46:01.947Z,996.88
2019-04-04T01:47:02.169Z,996.91
2019-04-04T01:48:02.418Z,996.91
2019-04-04T01:49:02.638Z,996.91
2019-04-04T01:50:01.957Z,996.99
2019-04-04T01:51:02.141Z,996.99
2019-04-04T01:52:02.372Z,996.99
2019-04-04T01:53:02.627Z,996.99
2019-04-04T01:54:01.986Z,996.87
2019-04-04T01:55:04.351Z,996.87
2019-04-04T01:56:02.281Z,996.87
2019-04-04T01:57:02.422Z,996.87
2019-04-04T01:58:01.683Z,996.86
2019-04-04T01:59:01.884Z,996.86
2019-04-04T02:00:04.448Z,996.86
2019-04-04T02:01:02.248Z,996.86
2019-04-04T02:02:02.458Z,996.92
2019-04-04T02:03:01.710Z,996.92
2019-04-04T02:04:01.953Z,996.92
2019-04-04T02:05:02.231Z,996.92
2019-04-04T02:06:01.832Z,996.98
2019-04-04T02:07:02.010Z,996.98
2019-04-04T02:08:02.308Z,996.98
2019-04-04T02:09:03.778Z,996.98
2019-04-04T02:10:05.999Z,996.96
2019-04-04T02:11:01.914Z,996.96
2019-04-04T02:12:02.171Z,996.96
2019-04-04T02:13:02.399Z,996.96
2019-04-04T02:14:01.674Z,996.94
2019-04-04T02:15:01.923Z,996.94
2019-04-04T02:16:02.130Z,996.94
2019-04-04T02:17:02.295Z,996.94
2019-04-04T02:18:02.515Z,996.81
2019-04-04T02:19:01.760Z,996.81
2019-04-04T02:20:02.063Z,996.81
2019-04-04T02:21:02.321Z,996.81
2019-04-04T02:22:02.525Z,996.72
2019-04-04T02:23:02.230Z,996.72
2019-04-04T02:24:02.316Z,996.72
2019-04-04T02:25:04.004Z,996.72
2019-04-04T02:26:05.837Z,996.65
2019-04-04T02:27:01.709Z,996.65
2019-04-04T02:28:02.021Z,996.65
2019-04-04T02:29:02.261Z,996.65
2019-04-04T02:30:02.467Z,996.69
2019-04-04T02:31:01.653Z,996.69
2019-04-04T02:32:01.940Z,996.69
2019-04-04T02:33:02.200Z,996.69
2019-04-04T02:34:06.605Z,996.63
2019-04-04T02:35:02.574Z,996.63
2019-04-04T02:36:01.804Z,996.63
2019-04-04T02:37:02.083Z,996.63
2019-04-04T02:38:02.378Z,996.48
2019-04-04T02:39:02.528Z,996.48
2019-04-04T02:40:01.816Z,996.48
2019-04-04T02:41:02.006Z,996.48
2019-04-04T02:42:02.228Z,996.33
2019-04-04T02:43:02.483Z,996.33
2019-04-04T02:44:01.743Z,996.33
2019-04-04T02:45:06.720Z,996.33
2019-04-04T02:46:02.186Z,996.23
2019-04-04T02:47:02.407Z,996.23
2019-04-04T02:48:02.653Z,996.23
2019-04-04T02:49:01.814Z,996.23
2019-04-04T02:50:02.638Z,996.22
2019-04-04T02:51:07.048Z,996.22
2019-04-04T02:52:02.550Z,996.22
2019-04-04T02:53:01.890Z,996.22
2019-04-04T02:54:02.108Z,996.31
2019-04-04T02:55:02.428Z,996.31
2019-04-04T02:56:04.021Z,996.31
2019-04-04T02:57:01.795Z,996.31
2019-04-04T02:58:02.043Z,996.47
2019-04-04T02:59:02.382Z,996.47
2019-04-04T03:00:02.573Z,996.47
2019-04-04T03:01:01.784Z,996.47
2019-04-04T03:02:06.229Z,996.35
2019-04-04T03:03:02.300Z,996.35
2019-04-04T03:04:02.604Z,996.35
2019-04-04T03:05:01.846Z,996.35
2019-04-04T03:06:02.120Z,996.42
2019-04-04T03:07:02.186Z,996.42
2019-04-04T03:08:04.821Z,996.42
2019-04-04T03:09:01.716Z,996.42
2019-04-04T03:10:01.987Z,996.47
2019-04-04T03:11:02.185Z,996.47
2019-04-04T03:12:02.440Z,996.47
2019-04-04T03:13:01.622Z,996.47
2019-04-04T03:14:04.964Z,996.44
2019-04-04T03:15:02.087Z,996.44
2019-04-04T03:16:02.311Z,996.44
2019-04-04T03:17:02.537Z,996.44
2019-04-04T03:18:05.630Z,996.36
2019-04-04T03:19:02.028Z,996.36
2019-04-04T03:20:02.379Z,996.36
2019-04-04T03:21:02.529Z,996.36
2019-04-04T03:22:01.871Z,996.31
2019-04-04T03:23:02.046Z,996.31
2019-04-04T03:24:07.323Z,996.31
2019-04-04T03:25:02.490Z,996.31
2019-04-04T03:26:01.747Z,996.26
2019-04-04T03:27:01.957Z,996.26
2019-04-04T03:28:02.220Z,996.26
2019-04-04T03:29:09.854Z,996.16
2019-04-04T03:30:02.613Z,996.16
2019-04-04T03:31:04.132Z,996.16
2019-04-04T03:32:02.128Z,996.16
2019-04-04T03:33:02.253Z,996.23
2019-04-04T03:34:12.335Z,996.23
2019-04-04T03:35:02.108Z,996.23
2019-04-04T03:36:02.043Z,996.23
2019-04-04T03:37:07.891Z,996.13
2019-04-04T03:38:02.558Z,996.13
2019-04-04T03:39:01.781Z,996.13
2019-04-04T03:40:01.984Z,996.13
2019-04-04T03:41:02.199Z,996.19
2019-04-04T03:42:06.943Z,996.19
2019-04-04T03:43:02.662Z,996.19
2019-04-04T03:44:01.878Z,996.19
2019-04-04T03:45:02.129Z,996.38
2019-04-04T03:46:02.403Z,996.38
2019-04-04T03:47:02.615Z,996.38
2019-04-04T03:48:01.851Z,996.38
2019-04-04T03:49:02.155Z,996.31
2019-04-04T03:50:02.432Z,996.31
2019-04-04T03:51:05.443Z,996.31
2019-04-04T03:52:01.753Z,996.31
2019-04-04T03:53:01.962Z,996.36
2019-04-04T03:54:02.303Z,996.36
2019-04-04T03:55:02.560Z,996.36
2019-04-04T03:56:01.957Z,996.36
2019-04-04T03:57:01.995Z,996.19
2019-04-04T03:58:02.302Z,996.19
2019-04-04T03:59:02.483Z,996.19
2019-04-04T04:00:07.764Z,996.19
2019-04-04T04:01:01.878Z,996.27
2019-04-04T04:02:02.060Z,996.27
2019-04-04T04:03:02.347Z,996.27
2019-04-04T04:04:02.601Z,996.27
2019-04-04T04:05:02.513Z,996.27
2019-04-04T04:06:02.084Z,996.27
2019-04-04T04:07:02.241Z,996.27
2019-04-04T04:08:02.479Z,996.27
2019-04-04T04:09:01.681Z,996.18
2019-04-04T04:10:02.164Z,996.18
2019-04-04T04:11:06.188Z,996.18
2019-04-04T04:12:02.360Z,996.18
2019-04-04T04:13:02.639Z,996.13
2019-04-04T04:14:01.799Z,996.13
2019-04-04T04:15:02.200Z,996.13
2019-04-04T04:16:04.238Z,996.13
2019-04-04T04:17:02.617Z,996.17
2019-04-04T04:18:01.804Z,996.17
2019-04-04T04:19:02.003Z,996.17
2019-04-04T04:20:05.215Z,996.17
2019-04-04T04:21:02.469Z,996.23
2019-04-04T04:22:01.811Z,996.23
2019-04-04T04:23:02.009Z,996.23
2019-04-04T04:24:02.207Z,996.23
2019-04-04T04:25:03.974Z,996.13
2019-04-04T04:26:01.645Z,996.13
2019-04-04T04:27:01.951Z,996.13
2019-04-04T04:28:03.554Z,996.13
2019-04-04T04:29:02.321Z,996.22
2019-04-04T04:30:07.759Z,996.22
2019-04-04T04:31:01.863Z,996.22
2019-04-04T04:32:02.099Z,996.22
2019-04-04T04:33:02.241Z,996.36
2019-04-04T04:34:02.491Z,996.36
2019-04-04T04:35:01.777Z,996.36
2019-04-04T04:36:01.918Z,996.36
2019-04-04T04:37:02.235Z,996.53
2019-04-04T04:38:02.398Z,996.53
2019-04-04T04:39:02.526Z,996.53
2019-04-04T04:40:02.003Z,996.53
2019-04-04T04:41:02.006Z,996.38
2019-04-04T04:42:02.295Z,996.38
2019-04-04T04:43:02.450Z,996.38
2019-04-04T04:44:06.499Z,996.38
2019-04-04T04:45:01.913Z,996.58
2019-04-04T04:46:02.099Z,996.58
2019-04-04T04:47:02.333Z,996.58
2019-04-04T04:48:02.608Z,996.58
2019-04-04T04:49:04.491Z,996.51
2019-04-04T04:50:01.968Z,996.51
2019-04-04T04:51:02.253Z,996.51
2019-04-04T04:52:02.491Z,996.51
2019-04-04T04:53:01.755Z,996.43
2019-04-04T04:54:02.057Z,996.43
2019-04-04T04:55:02.355Z,996.43
2019-04-04T04:56:02.537Z,996.43
2019-04-04T04:57:05.231Z,996.46
2019-04-04T04:58:02.095Z,996.46
2019-04-04T04:59:02.231Z,996.46
2019-04-04T05:00:04.546Z,996.46
2019-04-04T05:01:02.326Z,996.45
2019-04-04T05:02:02.522Z,996.45
2019-04-04T05:03:01.797Z,996.45
2019-04-04T05:04:03.058Z,996.45
2019-04-04T05:05:02.264Z,996.48
2019-04-04T05:06:03.606Z,996.48
2019-04-04T05:07:01.700Z,996.48
2019-04-04T05:08:01.974Z,996.48
2019-04-04T05:09:02.056Z,996.49
2019-04-04T05:10:02.405Z,996.49
2019-04-04T05:11:02.435Z,996.49
2019-04-04T05:12:01.697Z,996.49
2019-04-04T05:13:01.891Z,996.58
2019-04-04T05:14:02.130Z,996.58
2019-04-04T05:15:02.573Z,996.58
2019-04-04T05:16:08.950Z,996.66
2019-04-04T05:17:01.786Z,996.66
2019-04-04T05:18:02.040Z,996.66
2019-04-04T05:19:02.325Z,996.66
2019-04-04T05:20:02.631Z,996.57
2019-04-04T05:21:02.837Z,996.57
2019-04-04T05:22:01.983Z,996.57
2019-04-04T05:23:02.138Z,996.57
2019-04-04T05:24:02.451Z,996.61
2019-04-04T05:25:09.247Z,996.61
2019-04-04T05:26:03.563Z,996.61
2019-04-04T05:27:02.000Z,996.61
2019-04-04T05:28:02.187Z,996.6
2019-04-04T05:29:02.440Z,996.6
2019-04-04T05:30:01.854Z,996.6
2019-04-04T05:31:01.839Z,996.6
2019-04-04T05:32:02.128Z,996.45
2019-04-04T05:33:02.299Z,996.45
2019-04-04T05:34:02.605Z,996.45
2019-04-04T05:35:02.373Z,996.45
2019-04-04T05:36:06.029Z,996.66
2019-04-04T05:37:02.244Z,996.66
2019-04-04T05:38:02.453Z,996.66
2019-04-04T05:39:01.633Z,996.66
2019-04-04T05:40:01.992Z,996.72
2019-04-04T05:41:02.190Z,996.72
2019-04-04T05:42:02.354Z,996.72
2019-04-04T05:43:05.127Z,996.72
2019-04-04T05:44:01.740Z,996.67
2019-04-04T05:45:01.987Z,996.67
2019-04-04T05:46:02.147Z,996.67
2019-04-04T05:47:02.432Z,996.67
2019-04-04T05:48:02.545Z,996.79
2019-04-04T05:49:08.622Z,996.79
2019-04-04T05:50:01.989Z,996.79
2019-04-04T05:51:02.164Z,996.79
2019-04-04T05:52:02.435Z,996.88
2019-04-04T05:53:05.141Z,996.88
2019-04-04T05:54:01.813Z,996.88
2019-04-04T05:55:02.024Z,996.88
2019-04-04T05:56:02.257Z,996.92
2019-04-04T05:57:03.822Z,996.92
2019-04-04T05:58:01.657Z,996.92
2019-04-04T05:59:01.853Z,996.92
2019-04-04T06:00:05.325Z,997.04
2019-04-04T06:01:02.929Z,997.04
2019-04-04T06:02:02.363Z,997.04
2019-04-04T06:03:02.593Z,997.04
2019-04-04T06:04:04.456Z,997.1
2019-04-04T06:05:02.062Z,997.1
2019-04-04T06:06:02.351Z,997.1
2019-04-04T06:07:05.239Z,997.1
2019-04-04T06:08:02.613Z,997.13
2019-04-04T06:09:01.767Z,997.13
2019-04-04T06:10:02.182Z,997.13
2019-04-04T06:11:02.381Z,997.13
2019-04-04T06:12:01.767Z,997.16
2019-04-04T06:13:01.982Z,997.16
2019-04-04T06:14:02.165Z,997.16
2019-04-04T06:15:02.502Z,997.16
2019-04-04T06:16:04.953Z,997.15
2019-04-04T06:17:01.893Z,997.15
2019-04-04T06:18:02.187Z,997.15
2019-04-04T06:19:02.356Z,997.15
2019-04-04T06:20:02.611Z,997.22
2019-04-04T06:21:01.853Z,997.22
2019-04-04T06:22:02.027Z,997.22
2019-04-04T06:23:02.236Z,997.22
2019-04-04T06:24:02.440Z,997.19
2019-04-04T06:25:02.628Z,997.19
2019-04-04T06:26:02.122Z,997.19
2019-04-04T06:27:02.368Z,997.19
2019-04-04T06:28:02.633Z,997.17
2019-04-04T06:29:02.005Z,997.17
2019-04-04T06:30:02.322Z,997.17
2019-04-04T06:31:02.532Z,997.17
2019-04-04T06:32:01.761Z,997.22
2019-04-04T06:33:05.186Z,997.22
2019-04-04T06:34:02.183Z,997.22
2019-04-04T06:35:02.454Z,997.22
2019-04-04T06:36:01.693Z,997.11
2019-04-04T06:37:01.900Z,997.11
2019-04-04T06:38:02.136Z,997.11
2019-04-04T06:39:02.373Z,997.11
2019-04-04T06:40:02.587Z,997.25
2019-04-04T06:41:01.842Z,997.25
2019-04-04T06:42:04.207Z,997.25
2019-04-04T06:43:10.616Z,997.25
2019-04-04T06:44:02.439Z,997.31
2019-04-04T06:45:01.692Z,997.31
2019-04-04T06:46:01.889Z,997.31
2019-04-04T06:47:02.549Z,997.31
2019-04-04T06:48:02.475Z,997.23
2019-04-04T06:49:05.023Z,997.23
2019-04-04T06:50:01.996Z,997.23
2019-04-04T06:51:02.058Z,997.23
2019-04-04T06:52:02.252Z,997.44
2019-04-04T06:53:02.548Z,997.44
2019-04-04T06:54:01.870Z,997.44
2019-04-04T06:55:02.031Z,997.44
2019-04-04T06:56:02.210Z,997.58
2019-04-04T06:57:05.052Z,997.58
2019-04-04T06:58:01.644Z,997.58
2019-04-04T06:59:01.972Z,997.55
2019-04-04T07:00:05.565Z,997.55
2019-04-04T07:01:02.397Z,997.55
2019-04-04T07:02:01.663Z,997.55
2019-04-04T07:03:01.892Z,997.64
2019-04-04T07:04:02.156Z,997.64
2019-04-04T07:05:04.134Z,997.64
2019-04-04T07:06:02.635Z,997.64
2019-04-04T07:07:01.840Z,997.71
2019-04-04T07:08:02.060Z,997.71
2019-04-04T07:09:02.251Z,997.71
2019-04-04T07:10:02.494Z,997.71
2019-04-04T07:11:15.451Z,997.85
2019-04-04T07:12:01.929Z,997.85
2019-04-04T07:13:26.474Z,997.85
2019-04-04T07:14:02.420Z,997.85
2019-04-04T07:15:02.607Z,997.76
2019-04-04T07:16:08.400Z,997.76
2019-04-04T07:17:02.522Z,997.76
2019-04-04T07:18:02.426Z,997.76
2019-04-04T07:19:02.596Z,997.94
2019-04-04T07:20:02.195Z,997.94
2019-04-04T07:21:04.042Z,997.94
2019-04-04T07:22:02.342Z,997.94
2019-04-04T07:23:02.579Z,997.91
2019-04-04T07:24:01.740Z,997.91
2019-04-04T07:25:06.916Z,997.91
2019-04-04T07:26:02.203Z,997.91
2019-04-04T07:27:02.406Z,997.91
2019-04-04T07:28:01.822Z,997.91
2019-04-04T07:29:01.990Z,997.91
2019-04-04T07:30:02.567Z,997.91
2019-04-04T07:31:02.864Z,997.95
2019-04-04T07:32:01.794Z,997.95
2019-04-04T07:33:01.938Z,997.95
2019-04-04T07:34:02.186Z,997.95
2019-04-04T07:35:02.384Z,997.76
2019-04-04T07:36:02.513Z,997.76
2019-04-04T07:37:01.819Z,997.76
2019-04-04T07:38:01.855Z,997.76
2019-04-04T07:39:02.049Z,997.79
2019-04-04T07:40:04.722Z,997.79
2019-04-04T07:41:02.364Z,997.79
2019-04-04T07:42:01.683Z,997.79
2019-04-04T07:43:01.950Z,997.8
2019-04-04T07:44:02.140Z,997.8
2019-04-04T07:45:02.469Z,997.8
2019-04-04T07:46:17.145Z,997.8
2019-04-04T07:47:01.801Z,997.68
2019-04-04T07:48:02.064Z,997.68
2019-04-04T07:49:02.330Z,997.68
2019-04-04T07:50:02.601Z,997.68
2019-04-04T07:51:01.878Z,997.77
2019-04-04T07:52:02.653Z,997.77
2019-04-04T07:53:05.447Z,997.77
2019-04-04T07:54:02.469Z,997.77
2019-04-04T07:55:01.713Z,997.78
2019-04-04T07:56:01.971Z,997.78
2019-04-04T07:57:02.124Z,997.78
2019-04-04T07:58:02.357Z,997.78
2019-04-04T07:59:02.552Z,997.71
2019-04-04T08:00:04.120Z,997.71
2019-04-04T08:01:02.084Z,997.71
2019-04-04T08:02:02.217Z,997.71
2019-04-04T08:03:02.332Z,997.71
2019-04-04T08:04:02.553Z,997.71
2019-04-04T08:05:01.703Z,997.71
2019-04-04T08:06:02.030Z,997.71
2019-04-04T08:07:02.041Z,997.84
2019-04-04T08:08:02.233Z,997.84
2019-04-04T08:09:02.454Z,997.84
2019-04-04T08:10:02.132Z,997.84
2019-04-04T08:11:02.330Z,997.77
2019-04-04T08:12:02.523Z,997.77
2019-04-04T08:13:01.721Z,997.77
2019-04-04T08:14:02.027Z,997.77
2019-04-04T08:15:02.276Z,997.86
2019-04-04T08:16:02.521Z,997.86
2019-04-04T08:17:01.648Z,997.86
2019-04-04T08:18:01.917Z,997.86
2019-04-04T08:19:02.166Z,997.92
2019-04-04T08:20:02.371Z,997.92
2019-04-04T08:21:05.569Z,997.92
2019-04-04T08:22:02.000Z,997.92
2019-04-04T08:23:02.214Z,997.97
2019-04-04T08:24:02.291Z,997.97
2019-04-04T08:25:02.468Z,997.97
2019-04-04T08:26:01.883Z,997.97
2019-04-04T08:27:01.986Z,998.06
2019-04-04T08:28:02.213Z,998.06
2019-04-04T08:29:02.380Z,998.06
2019-04-04T08:30:02.561Z,998.06
2019-04-04T08:31:02.020Z,997.95
2019-04-04T08:32:02.110Z,997.95
2019-04-04T08:33:02.308Z,997.95
2019-04-04T08:34:02.517Z,997.95
2019-04-04T08:35:01.637Z,997.88
2019-04-04T08:36:06.922Z,997.88
2019-04-04T08:37:02.115Z,997.88
2019-04-04T08:38:02.309Z,998.1
2019-04-04T08:39:02.536Z,998.1
2019-04-04T08:40:01.712Z,998.1
2019-04-04T08:41:01.978Z,998.1
2019-04-04T08:42:02.085Z,998.25
2019-04-04T08:43:02.332Z,998.25
2019-04-04T08:44:02.539Z,998.25
2019-04-04T08:45:01.778Z,998.25
2019-04-04T08:46:02.084Z,998.17
2019-04-04T08:47:02.204Z,998.17
2019-04-04T08:48:02.525Z,998.17
2019-04-04T08:49:01.729Z,998.17
2019-04-04T08:50:01.928Z,998.21
2019-04-04T08:51:02.179Z,998.21
2019-04-04T08:52:02.322Z,998.21
2019-04-04T08:53:02.632Z,998.21
2019-04-04T08:54:01.839Z,998.27
2019-04-04T08:55:02.147Z,998.27
2019-04-04T08:56:02.277Z,998.27
2019-04-04T08:57:02.489Z,998.27
2019-04-04T08:58:01.698Z,998.24
2019-04-04T08:59:01.948Z,998.24
2019-04-04T09:00:04.680Z,998.24
2019-04-04T09:01:02.513Z,998.24
2019-04-04T09:02:01.662Z,998.38
2019-04-04T09:03:01.966Z,998.38
2019-04-04T09:04:02.202Z,998.38
2019-04-04T09:05:12.905Z,998.38
2019-04-04T09:06:01.784Z,998.32
2019-04-04T09:07:01.811Z,998.32
2019-04-04T09:08:02.084Z,998.32
2019-04-04T09:09:02.315Z,998.32
2019-04-04T09:10:02.458Z,998.54
2019-04-04T09:11:02.560Z,998.54
2019-04-04T09:12:01.826Z,998.54
2019-04-04T09:13:02.064Z,998.54
2019-04-04T09:14:02.257Z,998.52
2019-04-04T09:15:02.353Z,998.52
2019-04-04T09:16:02.522Z,998.52
2019-04-04T09:17:01.850Z,998.52
2019-04-04T09:18:02.044Z,998.53
2019-04-04T09:19:02.359Z,998.53
2019-04-04T09:20:02.545Z,998.53
2019-04-04T09:21:01.756Z,998.53
2019-04-04T09:22:01.959Z,998.65
2019-04-04T09:23:02.166Z,998.65
2019-04-04T09:24:02.446Z,998.65
2019-04-04T09:25:02.059Z,998.65
2019-04-04T09:26:06.639Z,998.73
2019-04-04T09:27:02.288Z,998.73
2019-04-04T09:28:02.487Z,998.73
2019-04-04T09:29:01.749Z,998.73
2019-04-04T09:30:02.086Z,998.75
2019-04-04T09:31:02.232Z,998.75
2019-04-04T09:32:02.456Z,998.75
2019-04-04T09:33:01.681Z,998.75
2019-04-04T09:34:01.862Z,998.64
2019-04-04T09:35:02.156Z,998.64
2019-04-04T09:36:02.217Z,998.64
2019-04-04T09:37:02.459Z,998.64
2019-04-04T09:38:01.684Z,998.75
2019-04-04T09:39:01.903Z,998.75
2019-04-04T09:40:02.183Z,998.75
2019-04-04T09:41:02.421Z,998.75
2019-04-04T09:42:02.651Z,998.69
2019-04-04T09:43:01.757Z,998.69
2019-04-04T09:44:01.904Z,998.69
2019-04-04T09:45:02.241Z,998.69
2019-04-04T09:46:02.393Z,998.87
2019-04-04T09:47:06.138Z,998.87
2019-04-04T09:48:01.807Z,998.87
2019-04-04T09:49:01.905Z,998.87
2019-04-04T09:50:02.185Z,998.83
2019-04-04T09:51:02.404Z,998.83
2019-04-04T09:52:02.650Z,998.83
2019-04-04T09:53:01.881Z,998.83
2019-04-04T09:54:02.029Z,999.05
2019-04-04T09:55:02.349Z,999.05
2019-04-04T09:56:02.803Z,999.05
2019-04-04T09:57:01.706Z,999.05
2019-04-04T09:58:02.000Z,999.14
2019-04-04T09:59:02.148Z,999.14
2019-04-04T10:00:04.740Z,999.14
2019-04-04T10:01:02.585Z,999.14
2019-04-04T10:02:01.830Z,999.08
2019-04-04T10:03:02.052Z,999.08
2019-04-04T10:04:02.241Z,999.08
2019-04-04T10:05:02.545Z,999.08
2019-04-04T10:06:01.643Z,999.09
2019-04-04T10:07:01.778Z,999.09
2019-04-04T10:08:01.973Z,999.09
2019-04-04T10:09:16.453Z,999.09
2019-04-04T10:10:02.374Z,998.98
2019-04-04T10:11:01.594Z,998.98
2019-04-04T10:12:01.867Z,998.98
2019-04-04T10:13:02.153Z,998.98
2019-04-04T10:14:04.525Z,999
2019-04-04T10:15:02.522Z,999
2019-04-04T10:16:01.884Z,999
2019-04-04T10:17:01.953Z,998.89
2019-04-04T10:18:02.390Z,998.89
2019-04-04T10:19:02.404Z,998.89
2019-04-04T10:20:02.660Z,998.89
2019-04-04T10:21:12.924Z,998.96
2019-04-04T10:22:01.994Z,998.96
2019-04-04T10:23:02.241Z,998.96
2019-04-04T10:24:02.514Z,998.96
2019-04-04T10:25:01.772Z,998.91
2019-04-04T10:26:01.916Z,998.91
2019-04-04T10:27:02.191Z,998.91
2019-04-04T10:28:02.443Z,998.91
2019-04-04T10:29:02.678Z,999.01
2019-04-04T10:30:01.829Z,999.01
2019-04-04T10:31:01.945Z,999.01
2019-04-04T10:32:02.138Z,999.01
2019-04-04T10:33:02.283Z,999.03
2019-04-04T10:34:02.529Z,999.03
2019-04-04T10:35:02.304Z,999.03
2019-04-04T10:36:02.367Z,999.03
2019-04-04T10:37:01.593Z,999.06
2019-04-04T10:38:01.827Z,999.06
2019-04-04T10:39:02.105Z,999.06
2019-04-04T10:40:02.259Z,999.06
2019-04-04T10:41:02.385Z,999.01
2019-04-04T10:42:01.671Z,999.01
2019-04-04T10:43:01.938Z,999.01
2019-04-04T10:44:02.235Z,999.01
2019-04-04T10:45:02.459Z,998.87
2019-04-04T10:46:02.586Z,998.87
2019-04-04T10:47:01.800Z,998.87
2019-04-04T10:48:02.005Z,998.87
2019-04-04T10:49:02.107Z,998.99
2019-04-04T10:50:02.325Z,998.99
2019-04-04T10:51:02.444Z,998.99
2019-04-04T10:52:02.616Z,998.99
2019-04-04T10:53:01.922Z,998.97
2019-04-04T10:54:02.086Z,998.97
2019-04-04T10:55:02.474Z,998.97
2019-04-04T10:56:01.643Z,998.97
2019-04-04T10:57:01.814Z,999.1
2019-04-04T10:58:02.085Z,999.1
2019-04-04T10:59:02.202Z,999.1
2019-04-04T11:00:05.981Z,999.1
2019-04-04T11:01:01.873Z,999
2019-04-04T11:02:02.098Z,999
2019-04-04T11:03:02.385Z,999
2019-04-04T11:04:02.549Z,999
2019-04-04T11:05:01.659Z,999.07
2019-04-04T11:06:01.920Z,999.07
2019-04-04T11:07:02.202Z,999.07
2019-04-04T11:08:02.509Z,999.07
2019-04-04T11:09:02.592Z,999.04
2019-04-04T11:10:01.729Z,999.04
2019-04-04T11:11:01.848Z,999.04
2019-04-04T11:12:02.100Z,999.04
2019-04-04T11:13:03.490Z,999.09
2019-04-04T11:14:02.455Z,999.09
2019-04-04T11:15:01.772Z,999.09
2019-04-04T11:16:01.941Z,999.09
2019-04-04T11:17:02.112Z,999
2019-04-04T11:18:02.375Z,999
2019-04-04T11:19:02.442Z,999
2019-04-04T11:20:02.676Z,999
2019-04-04T11:21:01.853Z,998.97
2019-04-04T11:22:02.092Z,998.97
2019-04-04T11:23:02.734Z,998.97
2019-04-04T11:24:02.483Z,998.97
2019-04-04T11:25:02.670Z,998.87
2019-04-04T11:26:01.926Z,998.87
2019-04-04T11:27:02.055Z,998.87
2019-04-04T11:28:02.249Z,998.87
2019-04-04T11:29:02.461Z,998.85
2019-04-04T11:30:01.743Z,998.85
2019-04-04T11:31:01.815Z,998.85
2019-04-04T11:32:02.114Z,998.85
2019-04-04T11:33:02.199Z,998.98
2019-04-04T11:34:02.347Z,998.98
2019-04-04T11:35:02.553Z,998.98
2019-04-04T11:36:01.715Z,998.98
2019-04-04T11:37:01.908Z,998.92
2019-04-04T11:38:02.057Z,998.92
2019-04-04T11:39:02.304Z,998.92
2019-04-04T11:40:02.557Z,998.92
2019-04-04T11:41:01.714Z,999.05
2019-04-04T11:42:01.952Z,999.05
2019-04-04T11:43:02.269Z,999.05
2019-04-04T11:44:02.498Z,999.05
2019-04-04T11:45:02.596Z,999.08
2019-04-04T11:46:01.693Z,999.08
2019-04-04T11:47:01.887Z,999.08
2019-04-04T11:48:02.240Z,999.08
2019-04-04T11:49:02.498Z,998.97
2019-04-04T11:50:01.733Z,998.97
2019-04-04T11:51:01.854Z,998.97
2019-04-04T11:52:02.065Z,998.97
2019-04-04T11:53:02.239Z,999.12
2019-04-04T11:54:02.445Z,999.12
2019-04-04T11:55:01.781Z,999.12
2019-04-04T11:56:01.938Z,999.12
2019-04-04T11:57:02.263Z,999.08
2019-04-04T11:58:02.540Z,999.08
2019-04-04T11:59:02.585Z,999.08
2019-04-04T12:00:03.893Z,999.12
2019-04-04T12:01:01.680Z,999.12
2019-04-04T12:02:01.902Z,999.12
2019-04-04T12:03:02.173Z,999.12
2019-04-04T12:04:02.304Z,999.1
2019-04-04T12:05:02.649Z,999.1
2019-04-04T12:06:01.839Z,999.1
2019-04-04T12:07:01.983Z,999.1
2019-04-04T12:08:02.167Z,999.08
2019-04-04T12:09:02.403Z,999.08
2019-04-04T12:10:08.532Z,999.08
2019-04-04T12:11:01.788Z,999.08
2019-04-04T12:12:01.933Z,999.19
2019-04-04T12:13:02.175Z,999.19
2019-04-04T12:14:02.299Z,999.19
2019-04-04T12:15:02.534Z,999.19
2019-04-04T12:16:01.721Z,999.17
2019-04-04T12:17:01.999Z,999.17
2019-04-04T12:18:02.170Z,999.17
2019-04-04T12:19:02.399Z,999.17
2019-04-04T12:20:02.611Z,999.28
2019-04-04T12:21:01.804Z,999.28
2019-04-04T12:22:01.989Z,999.28
2019-04-04T12:23:02.163Z,999.28
2019-04-04T12:24:02.253Z,999.33
2019-04-04T12:25:02.487Z,999.33
2019-04-04T12:26:01.715Z,999.33
2019-04-04T12:27:01.875Z,999.33
2019-04-04T12:28:02.021Z,999.42
2019-04-04T12:29:02.219Z,999.42
2019-04-04T12:30:02.571Z,999.42